Time;durP1;ratioP1;P1;durP2;ratioP2;P2;SDS_P1;SDS_P2;PMS_P1;PMS_P2;Temp;Humidity;BMP_temperature;BMP_pressure;BME280_temperature;BME280_humidity;BME280_pressure;Samples;Min_cycle;Max_cycle;Signal;HPM_P1;HPM_P2
2023/09/11 00:02:21;;;;;;;14.70;6.63;;;;;;;23.01;100.00;101192.63;5072408;28;20028;-72
2023/09/11 00:04:47;;;;;;;14.13;6.90;;;;;;;23.00;100.00;101196.50;5071827;28;20468;-72
2023/09/11 00:07:14;;;;;;;11.38;6.30;;;;;;;22.94;100.00;101189.44;5054373;28;20465;-72
2023/09/11 00:09:39;;;;;;;14.02;6.93;;;;;;;22.85;100.00;101194.00;5039919;28;20028;-72
2023/09/11 00:12:05;;;;;;;10.95;6.80;;;;;;;22.85;100.00;101188.47;5073798;28;20035;-73
2023/09/11 00:14:30;;;;;;;12.45;6.88;;;;;;;22.73;100.00;101186.19;5074484;28;20028;-72
2023/09/11 00:16:56;;;;;;;13.48;7.00;;;;;;;22.75;100.00;101186.72;5073971;28;20032;-72
2023/09/11 00:19:21;;;;;;;10.60;6.68;;;;;;;22.67;100.00;101187.38;5073898;28;20021;-71
2023/09/11 00:21:46;;;;;;;16.92;7.05;;;;;;;22.82;100.00;101183.56;5074335;28;20108;-71
2023/09/11 00:24:12;;;;;;;11.75;7.00;;;;;;;22.71;100.00;101180.16;5055794;28;20086;-71
2023/09/11 00:26:37;;;;;;;15.20;7.50;;;;;;;22.82;100.00;101167.00;5073260;28;20043;-74
2023/09/11 00:29:03;;;;;;;12.77;7.85;;;;;;;22.76;100.00;101177.31;5058427;28;20025;-72
2023/09/11 00:31:28;;;;;;;11.63;7.30;;;;;;;22.85;100.00;101182.16;5054161;28;20484;-72
2023/09/11 00:33:53;;;;;;;11.88;7.20;;;;;;;22.82;100.00;101178.03;5053528;28;20029;-74
2023/09/11 00:36:18;;;;;;;12.45;6.90;;;;;;;22.75;100.00;101175.69;5053593;28;20036;-72
2023/09/11 00:38:47;;;;;;;15.35;7.38;;;;;;;22.77;100.00;101178.94;5053806;28;20033;-72
2023/09/11 00:41:13;;;;;;;10.02;7.22;;;;;;;22.74;100.00;101173.22;5053493;28;20032;-71
2023/09/11 00:43:38;;;;;;;13.55;8.00;;;;;;;22.70;100.00;101172.97;5038902;28;20037;-72
2023/09/11 00:46:05;;;;;;;14.88;7.90;;;;;;;22.68;100.00;101168.88;5055435;28;20028;-72
2023/09/11 00:48:31;;;;;;;15.13;7.53;;;;;;;22.74;100.00;101176.78;5055798;28;20478;-71
2023/09/11 00:50:56;;;;;;;13.50;7.60;;;;;;;22.69;100.00;101168.59;5063902;28;20031;-75
2023/09/11 00:53:22;;;;;;;10.40;7.07;;;;;;;22.64;100.00;101171.41;5053203;28;20029;-73
2023/09/11 00:55:47;;;;;;;14.35;7.57;;;;;;;22.67;100.00;101164.50;5053293;28;20483;-72
2023/09/11 00:58:16;;;;;;;16.42;7.35;;;;;;;22.65;100.00;101168.38;5052941;28;20082;-72
2023/09/11 01:00:43;;;;;;;13.23;7.53;;;;;;;22.60;100.00;101168.44;5054848;28;20161;-71
2023/09/11 01:03:08;;;;;;;14.63;7.57;;;;;;;22.59;100.00;101171.50;5072887;28;20097;-74
2023/09/11 01:05:36;;;;;;;12.98;7.93;;;;;;;22.50;100.00;101165.03;5055224;28;20387;-74
2023/09/11 01:08:01;;;;;;;11.05;7.28;;;;;;;22.47;100.00;101164.50;5055010;28;20035;-75
2023/09/11 01:10:27;;;;;;;12.73;7.15;;;;;;;22.47;100.00;101155.41;5073543;28;20025;-71
2023/09/11 01:12:52;;;;;;;16.30;8.20;;;;;;;22.45;100.00;101161.22;5052004;28;20029;-72
2023/09/11 01:15:18;;;;;;;12.85;7.70;;;;;;;22.43;100.00;101159.88;5064880;28;20373;-73
2023/09/11 01:17:55;;;;;;;12.65;7.13;;;;;;;22.42;100.00;101163.72;5053201;28;20056;-72
2023/09/11 01:20:26;;;;;;;12.75;7.50;;;;;;;22.30;100.00;101161.41;5052800;28;20167;-72
2023/09/11 01:23:22;;;;;;;12.13;7.63;;;;;;;22.41;100.00;101162.13;5052723;28;20425;-72
2023/09/11 01:26:24;;;;;;;9.63;7.40;;;;;;;22.42;100.00;101159.06;5052959;28;20043;-74
2023/09/11 01:29:17;;;;;;;15.82;7.97;;;;;;;22.40;100.00;101161.28;5061647;28;20031;-74
2023/09/11 01:31:44;;;;;;;12.85;7.70;;;;;;;22.30;100.00;101161.41;5052185;28;20024;-72
2023/09/11 01:34:10;;;;;;;12.23;7.03;;;;;;;22.25;100.00;101159.56;5052493;28;20520;-71
2023/09/11 01:36:35;;;;;;;15.95;7.50;;;;;;;22.24;100.00;101152.38;5054262;28;20078;-71
2023/09/11 01:39:01;;;;;;;11.40;7.55;;;;;;;22.19;100.00;101159.91;5052167;28;20468;-74
2023/09/11 01:41:35;;;;;;;13.27;7.47;;;;;;;22.18;100.00;101152.72;5062198;28;20471;-72
2023/09/11 01:44:12;;;;;;;12.60;7.50;;;;;;;22.13;100.00;101154.47;5072387;28;20028;-72
2023/09/11 01:46:38;;;;;;;13.32;6.93;;;;;;;22.17;100.00;101153.88;5059418;28;20036;-72
2023/09/11 01:49:05;;;;;;;13.80;6.93;;;;;;;22.04;100.00;101152.66;5052716;28;20032;-72
2023/09/11 01:51:32;;;;;;;13.20;7.20;;;;;;;22.04;100.00;101145.22;5070613;28;20468;-72
2023/09/11 01:53:59;;;;;;;13.98;7.32;;;;;;;22.02;100.00;101146.63;5072351;28;20032;-71
2023/09/11 01:56:24;;;;;;;13.15;7.10;;;;;;;21.98;100.00;101142.81;5056743;28;20032;-75
2023/09/11 01:58:49;;;;;;;19.70;7.38;;;;;;;21.95;100.00;101145.03;5056414;28;20025;-72
2023/09/11 02:01:15;;;;;;;13.05;6.93;;;;;;;21.91;100.00;101148.69;5057591;28;20119;-71
2023/09/11 02:03:40;;;;;;;13.45;6.72;;;;;;;21.80;100.00;101148.00;5072194;28;20118;-71
2023/09/11 02:06:06;;;;;;;17.50;7.25;;;;;;;21.85;100.00;101139.66;5061313;28;20531;-71
2023/09/11 02:08:34;;;;;;;11.57;6.65;;;;;;;21.81;100.00;101144.09;5042157;28;20086;-72
2023/09/11 02:11:00;;;;;;;11.55;7.00;;;;;;;21.79;100.00;101146.34;5056992;28;20032;-72
2023/09/11 02:13:25;;;;;;;10.70;7.05;;;;;;;21.77;100.00;101137.56;5034257;28;20040;-71
2023/09/11 02:15:50;;;;;;;11.10;7.05;;;;;;;21.75;100.00;101135.06;5051310;28;20036;-72
2023/09/11 02:18:16;;;;;;;12.25;6.93;;;;;;;21.57;100.00;101138.59;5052537;28;20029;-72
2023/09/11 02:20:41;;;;;;;11.57;6.80;;;;;;;21.63;100.00;101134.66;5057059;28;20087;-72
2023/09/11 02:23:06;;;;;;;12.27;6.80;;;;;;;21.64;100.00;101132.75;5053453;28;20025;-73
2023/09/11 02:25:32;;;;;;;12.13;7.05;;;;;;;21.63;100.00;101133.88;5050599;28;20031;-70
2023/09/11 02:27:57;;;;;;;12.70;7.15;;;;;;;21.52;100.00;101127.66;5075057;28;20033;-72
2023/09/11 02:30:22;;;;;;;10.38;6.65;;;;;;;21.57;100.00;101124.81;5075201;28;20055;-71
2023/09/11 02:32:47;;;;;;;14.57;6.97;;;;;;;21.54;100.00;101123.50;5075005;28;20079;-72
2023/09/11 02:35:13;;;;;;;11.10;7.10;;;;;;;21.46;100.00;101123.28;5057068;28;20035;-71
2023/09/11 02:37:38;;;;;;;12.52;7.00;;;;;;;21.46;100.00;101124.09;5058502;28;20090;-71
2023/09/11 02:40:04;;;;;;;13.35;7.03;;;;;;;21.36;100.00;101125.03;5075615;28;20040;-71
2023/09/11 02:42:29;;;;;;;8.90;6.47;;;;;;;21.29;100.00;101120.97;5072550;28;20044;-71
2023/09/11 02:44:55;;;;;;;12.57;6.90;;;;;;;21.33;100.00;101122.03;5061689;28;20035;-72
2023/09/11 02:47:20;;;;;;;13.10;7.03;;;;;;;21.29;100.00;101124.56;5071003;28;20031;-72
2023/09/11 02:49:45;;;;;;;15.57;7.00;;;;;;;21.24;100.00;101116.34;5063143;28;20040;-72
2023/09/11 02:52:11;;;;;;;11.38;6.78;;;;;;;21.25;100.00;101126.25;5059147;28;20062;-72
2023/09/11 02:54:36;;;;;;;14.10;7.30;;;;;;;21.21;100.00;101123.25;5074848;28;20109;-72
2023/09/11 02:57:01;;;;;;;10.75;7.15;;;;;;;21.15;100.00;101121.66;5058489;28;20041;-71
2023/09/11 02:59:27;;;;;;;15.27;7.20;;;;;;;21.13;100.00;101123.06;5074483;28;20028;-72
2023/09/11 03:01:52;;;;;;;12.43;7.43;;;;;;;21.20;100.00;101116.09;5072242;28;20115;-71
2023/09/11 03:04:17;;;;;;;10.18;6.85;;;;;;;21.22;100.00;101119.38;5075293;28;20084;-72
2023/09/11 03:06:43;;;;;;;12.38;7.15;;;;;;;21.19;100.00;101121.91;5060691;28;20061;-72
2023/09/11 03:09:08;;;;;;;11.55;7.00;;;;;;;21.13;100.00;101115.63;5055307;28;20525;-72
2023/09/11 03:11:33;;;;;;;9.65;6.68;;;;;;;21.09;100.00;101105.47;5054370;28;20031;-72
2023/09/11 03:13:59;;;;;;;10.75;7.13;;;;;;;20.94;100.00;101110.03;5064779;28;20467;-71
2023/09/11 03:16:24;;;;;;;12.07;7.55;;;;;;;21.02;100.00;101100.34;5069748;28;20060;-74
2023/09/11 03:18:49;;;;;;;12.55;7.50;;;;;;;20.99;100.00;101096.22;5070471;28;20032;-73
2023/09/11 03:21:15;;;;;;;10.20;6.45;;;;;;;20.97;100.00;101100.34;5056572;28;20457;-75
2023/09/11 03:23:40;;;;;;;13.30;7.45;;;;;;;20.86;100.00;101103.22;5058192;28;20110;-72
2023/09/11 03:26:16;;;;;;;13.15;7.50;;;;;;;20.93;100.00;101094.63;5073933;28;20432;-73
2023/09/11 03:28:45;;;;;;;16.75;7.15;;;;;;;20.88;100.00;101089.19;5066049;28;20032;-70
2023/09/11 03:31:10;;;;;;;11.10;7.20;;;;;;;20.88;100.00;101087.25;5073843;28;20111;-74
2023/09/11 03:33:35;;;;;;;9.90;7.60;;;;;;;20.78;100.00;101084.56;5074974;28;20441;-74
2023/09/11 03:36:01;;;;;;;11.75;7.00;;;;;;;20.84;100.00;101082.59;5062178;28;20060;-72
2023/09/11 03:38:26;;;;;;;14.68;8.02;;;;;;;20.80;100.00;101087.84;5047473;28;20029;-72
2023/09/11 03:40:51;;;;;;;13.05;7.80;;;;;;;20.90;100.00;101081.44;5070580;28;20028;-74
2023/09/11 03:43:16;;;;;;;10.63;7.47;;;;;;;20.87;100.00;101076.53;5072265;28;20400;-73
2023/09/11 03:45:42;;;;;;;11.27;7.05;;;;;;;20.85;100.00;101087.81;5063194;28;20380;-74
2023/09/11 03:48:07;;;;;;;13.88;7.30;;;;;;;20.89;100.00;101085.31;5074548;28;20025;-74
2023/09/11 03:50:32;;;;;;;12.38;7.82;;;;;;;20.83;100.00;101080.97;5065629;28;20037;-72
2023/09/11 03:52:58;;;;;;;13.70;7.35;;;;;;;20.87;100.00;101073.78;5074632;28;20120;-75
2023/09/11 03:55:23;;;;;;;12.27;7.00;;;;;;;20.92;100.00;101068.22;5056445;28;20028;-73
2023/09/11 03:57:48;;;;;;;12.73;7.25;;;;;;;20.89;100.00;101077.03;5056547;28;20029;-73
2023/09/11 04:00:14;;;;;;;12.63;7.47;;;;;;;20.83;100.00;101065.25;5053420;28;20029;-72
2023/09/11 04:02:39;;;;;;;12.77;7.38;;;;;;;20.91;100.00;101060.25;5056793;28;20028;-72
2023/09/11 04:05:05;;;;;;;16.77;7.45;;;;;;;20.85;100.00;101056.75;5054532;28;20032;-70
2023/09/11 04:07:32;;;;;;;14.88;7.18;;;;;;;20.90;100.00;101048.44;5057863;28;20032;-74
2023/09/11 04:09:57;;;;;;;16.45;7.03;;;;;;;21.02;100.00;101059.06;5053861;28;20155;-72
2023/09/11 04:12:23;;;;;;;16.25;7.35;;;;;;;21.00;100.00;101055.75;5056868;28;20036;-71
2023/09/11 04:14:48;;;;;;;12.38;6.88;;;;;;;21.01;100.00;101049.97;5058301;28;20067;-73
2023/09/11 04:17:13;;;;;;;11.73;7.07;;;;;;;21.00;100.00;101048.34;5059231;28;20043;-71
2023/09/11 04:19:39;;;;;;;11.50;7.05;;;;;;;20.89;100.00;101053.13;5074145;28;20028;-73
2023/09/11 04:22:05;;;;;;;12.27;7.53;;;;;;;20.95;100.00;101051.13;5072426;28;20067;-73
2023/09/11 04:24:31;;;;;;;14.88;7.80;;;;;;;20.89;100.00;101044.88;5064885;28;20467;-71
2023/09/11 04:26:57;;;;;;;11.48;6.95;;;;;;;20.81;100.00;101041.94;5073087;28;20467;-74
2023/09/11 04:29:22;;;;;;;15.73;7.45;;;;;;;20.85;100.00;101037.50;5073853;28;20066;-72
2023/09/11 04:31:48;;;;;;;14.07;6.95;;;;;;;20.88;100.00;101034.97;5073068;28;20042;-72
2023/09/11 04:34:13;;;;;;;13.85;7.35;;;;;;;20.81;100.00;101026.25;5035992;28;20071;-74
2023/09/11 04:36:38;;;;;;;10.90;6.70;;;;;;;20.88;100.00;101034.97;5058381;28;20111;-75
2023/09/11 04:39:06;;;;;;;11.80;7.10;;;;;;;20.86;100.00;101030.88;5073656;28;20055;-73
2023/09/11 04:41:32;;;;;;;16.30;7.32;;;;;;;20.84;100.00;101033.09;5054773;28;20127;-71
2023/09/11 04:43:57;;;;;;;16.63;7.28;;;;;;;20.81;100.00;101040.00;5047844;28;20120;-70
2023/09/11 04:46:22;;;;;;;13.32;6.65;;;;;;;20.81;100.00;101041.94;5062606;28;20116;-71
2023/09/11 04:48:48;;;;;;;11.88;6.95;;;;;;;20.86;100.00;101041.88;5071787;28;20039;-72
2023/09/11 04:51:13;;;;;;;13.63;7.35;;;;;;;20.84;100.00;101044.09;5072194;28;20585;-69
2023/09/11 04:53:38;;;;;;;15.30;7.25;;;;;;;20.84;100.00;101049.59;5052954;28;20029;-71
2023/09/11 04:56:04;;;;;;;13.70;7.43;;;;;;;20.84;100.00;101049.59;5052872;28;20029;-71
2023/09/11 04:58:29;;;;;;;16.08;7.43;;;;;;;20.85;100.00;101057.56;5051797;28;20116;-68
2023/09/11 05:00:55;;;;;;;11.25;7.07;;;;;;;20.82;100.00;101046.31;5055680;28;20503;-68
2023/09/11 05:03:20;;;;;;;37.75;8.15;;;;;;;20.81;100.00;101050.19;5071856;28;20074;-70
2023/09/11 05:05:47;;;;;;;12.65;6.53;;;;;;;20.70;100.00;101047.53;5069015;28;20036;-69
2023/09/11 05:08:13;;;;;;;15.75;6.95;;;;;;;20.77;100.00;101060.13;5062254;28;20033;-69
2023/09/11 05:10:42;;;;;;;11.80;6.85;;;;;;;20.73;100.00;101051.63;5073252;28;20467;-68
2023/09/11 05:13:08;;;;;;;15.13;7.30;;;;;;;20.78;100.00;101061.75;5056526;28;20032;-69
2023/09/11 05:15:33;;;;;;;12.15;6.75;;;;;;;20.70;100.00;101066.78;5052196;28;20652;-69
2023/09/11 05:17:58;;;;;;;11.45;6.60;;;;;;;20.69;100.00;101065.13;5053684;28;20525;-69
2023/09/11 05:20:24;;;;;;;17.35;7.28;;;;;;;20.68;100.00;101059.91;5053155;28;20036;-68
2023/09/11 05:22:49;;;;;;;13.88;7.00;;;;;;;20.71;100.00;101060.16;5065601;28;20111;-69
2023/09/11 05:25:24;;;;;;;15.43;6.95;;;;;;;20.73;100.00;101053.53;5059946;28;20029;-69
2023/09/11 05:27:49;;;;;;;16.65;7.32;;;;;;;20.67;100.00;101064.59;5056160;28;20044;-69
2023/09/11 05:30:15;;;;;;;18.83;7.07;;;;;;;20.73;100.00;101064.53;5072620;28;20028;-69
2023/09/11 05:32:41;;;;;;;16.95;6.78;;;;;;;20.73;100.00;101064.53;5063397;28;20035;-69
2023/09/11 05:35:07;;;;;;;16.45;7.00;;;;;;;20.77;100.00;101069.19;5057270;28;20032;-69
2023/09/11 05:37:33;;;;;;;15.40;7.15;;;;;;;20.78;100.00;101072.75;5052168;28;20033;-69
2023/09/11 05:39:58;;;;;;;19.23;7.50;;;;;;;20.75;100.00;101067.84;5052692;28;20024;-69
2023/09/11 05:42:24;;;;;;;14.82;7.03;;;;;;;20.78;100.00;101064.50;5051024;28;20104;-68
2023/09/11 05:44:49;;;;;;;15.93;6.82;;;;;;;20.69;100.00;101080.81;5052339;28;20110;-69
2023/09/11 05:47:15;;;;;;;17.60;7.00;;;;;;;20.70;100.00;101085.22;5060030;28;20050;-69
2023/09/11 05:49:41;;;;;;;19.40;6.72;;;;;;;20.74;100.00;101082.69;5071756;28;20113;-68
2023/09/11 05:52:06;;;;;;;19.30;6.82;;;;;;;20.71;100.00;101078.59;5071596;28;20111;-69
2023/09/11 05:54:33;;;;;;;17.10;6.82;;;;;;;20.65;100.00;101076.94;5065385;28;20035;-70
2023/09/11 05:56:59;;;;;;;13.43;6.47;;;;;;;20.80;100.00;101078.78;5051504;28;20033;-69
2023/09/11 05:59:25;;;;;;;21.17;6.93;;;;;;;20.79;100.00;101085.38;5055623;28;20040;-70
2023/09/11 06:01:50;;;;;;;10.18;6.03;;;;;;;20.79;100.00;101086.22;5069106;28;20105;-69
2023/09/11 06:04:15;;;;;;;13.13;6.70;;;;;;;20.86;100.00;101091.38;5069669;28;20056;-70
2023/09/11 06:06:41;;;;;;;14.13;6.70;;;;;;;20.86;100.00;101091.38;5065868;28;20033;-69
2023/09/11 06:09:08;;;;;;;16.10;6.63;;;;;;;20.83;100.00;101086.47;5052060;28;20029;-70
2023/09/11 06:11:34;;;;;;;24.77;7.40;;;;;;;20.85;100.00;101098.00;5052170;28;20036;-69
2023/09/11 06:13:59;;;;;;;15.02;6.57;;;;;;;20.85;100.00;101089.75;5060835;28;20037;-71
2023/09/11 06:16:25;;;;;;;13.32;7.32;;;;;;;20.89;100.00;101096.31;5072226;28;20438;-70
2023/09/11 06:18:50;;;;;;;16.85;7.07;;;;;;;20.86;100.00;101094.97;5061443;28;20049;-72
2023/09/11 06:21:15;;;;;;;17.98;7.18;;;;;;;20.93;100.00;101097.38;5051970;28;20068;-74
2023/09/11 06:23:41;;;;;;;13.50;6.65;;;;;;;20.83;100.00;101097.47;5034303;28;20028;-73
2023/09/11 06:26:06;;;;;;;13.25;6.57;;;;;;;20.86;100.00;101096.88;5035219;28;20029;-73
2023/09/11 06:28:31;;;;;;;16.13;6.88;;;;;;;20.92;100.00;101086.66;5041482;28;20028;-71
2023/09/11 06:30:57;;;;;;;12.55;6.78;;;;;;;20.89;100.00;101096.31;5072156;28;20455;-73
2023/09/11 06:33:22;;;;;;;14.52;6.93;;;;;;;20.92;100.00;101092.97;5071498;28;20379;-70
2023/09/11 06:35:47;;;;;;;38.33;9.20;;;;;;;20.95;100.00;101099.84;5034927;28;20096;-72
2023/09/11 06:38:13;;;;;;;50.83;10.73;;;;;;;21.00;100.00;101102.53;5051615;28;20123;-70
2023/09/11 06:40:38;;;;;;;23.35;7.88;;;;;;;20.97;100.00;101103.09;5051686;28;20457;-71
2023/09/11 06:43:04;;;;;;;25.83;8.60;;;;;;;20.95;100.00;101106.16;5051945;28;20036;-72
2023/09/11 06:45:33;;;;;;;15.48;7.60;;;;;;;20.95;100.00;101103.41;5051752;28;20025;-73
2023/09/11 06:47:58;;;;;;;13.00;7.55;;;;;;;20.95;100.00;101103.41;5071272;28;20033;-72
2023/09/11 06:50:24;;;;;;;15.07;6.63;;;;;;;20.90;100.00;101100.72;5036375;28;20087;-74
2023/09/11 06:52:49;;;;;;;10.55;6.78;;;;;;;20.96;100.00;101105.06;5036792;28;20024;-70
2023/09/11 06:55:15;;;;;;;15.27;7.25;;;;;;;21.00;100.00;101108.88;5051461;28;20021;-72
2023/09/11 06:57:54;;;;;;;17.33;7.30;;;;;;;21.03;100.00;101110.19;5062754;28;20545;-71
2023/09/11 07:00:19;;;;;;;19.20;7.63;;;;;;;20.99;100.00;101112.72;5069221;28;20111;-71
2023/09/11 07:02:48;;;;;;;20.30;7.68;;;;;;;21.01;100.00;101096.75;5057125;28;20057;-70
2023/09/11 07:05:16;;;;;;;15.52;7.65;;;;;;;21.03;100.00;101108.28;5051566;28;20741;-72
2023/09/11 07:07:41;;;;;;;18.17;7.97;;;;;;;21.05;100.00;101099.75;5054635;28;20059;-72
2023/09/11 07:10:14;;;;;;;15.75;7.65;;;;;;;21.09;100.00;101100.81;5058927;28;20094;-71
2023/09/11 07:12:40;;;;;;;19.08;7.45;;;;;;;21.14;100.00;101089.75;5055245;28;20024;-73
2023/09/11 07:15:06;;;;;;;14.20;8.02;;;;;;;21.19;100.00;101086.13;5052897;28;20048;-72
2023/09/11 07:17:31;;;;;;;15.30;7.72;;;;;;;21.25;100.00;101094.03;5063982;28;20425;-71
2023/09/11 07:19:56;;;;;;;14.98;7.60;;;;;;;21.29;100.00;101083.28;5055503;28;20029;-72
2023/09/11 07:22:22;;;;;;;14.38;7.97;;;;;;;21.31;100.00;101089.28;5053941;28;20025;-71
2023/09/11 07:24:47;;;;;;;18.65;7.88;;;;;;;21.37;100.00;101088.13;5055122;28;20119;-72
2023/09/11 07:27:13;;;;;;;16.83;8.55;;;;;;;21.39;100.00;101090.59;5037239;28;20086;-72
2023/09/11 07:29:38;;;;;;;15.48;8.52;;;;;;;21.44;100.00;101096.06;5054816;28;20029;-71
2023/09/11 07:32:04;;;;;;;18.92;8.95;;;;;;;21.46;100.00;101095.75;5037175;28;20036;-71
2023/09/11 07:34:29;;;;;;;14.73;8.60;;;;;;;21.53;100.00;101097.06;5056992;28;20120;-70
2023/09/11 07:36:55;;;;;;;16.63;8.75;;;;;;;21.57;100.00;101102.81;5062252;28;20468;-71
2023/09/11 07:39:20;;;;;;;19.08;8.77;;;;;;;21.64;100.00;101100.53;5036817;28;20108;-70
2023/09/11 07:41:47;;;;;;;18.65;10.02;;;;;;;21.63;100.00;101104.38;5057507;28;20029;-69
2023/09/11 07:44:13;;;;;;;16.92;9.98;;;;;;;21.65;100.00;101110.44;5054663;28;20025;-72
2023/09/11 07:46:38;;;;;;;17.23;10.00;;;;;;;21.73;100.00;101104.25;5054549;28;20378;-70
2023/09/11 07:49:03;;;;;;;21.00;10.55;;;;;;;21.74;100.00;101105.91;5036842;28;20468;-70
2023/09/11 07:51:29;;;;;;;24.35;10.10;;;;;;;21.81;100.00;101110.25;5055748;28;20028;-70
2023/09/11 07:53:56;;;;;;;18.70;10.90;;;;;;;21.84;100.00;101113.22;5054656;28;20054;-70
2023/09/11 07:56:21;;;;;;;18.75;10.82;;;;;;;21.93;100.00;101119.72;5066307;28;20083;-72
2023/09/11 07:58:50;;;;;;;20.25;11.85;;;;;;;21.89;100.00;101118.69;5056609;28;20052;-72
2023/09/11 08:01:15;;;;;;;20.25;12.10;;;;;;;21.90;100.00;101130.50;5070919;28;20028;-72
2023/09/11 08:03:41;;;;;;;22.70;11.98;;;;;;;21.94;100.00;101131.56;5074249;28;20056;-71
2023/09/11 08:06:06;;;;;;;18.60;11.43;;;;;;;22.01;100.00;101126.53;5074270;28;20387;-71
2023/09/11 08:08:32;;;;;;;18.80;12.52;;;;;;;22.07;100.00;101132.75;5074040;28;20032;-72
2023/09/11 08:10:57;;;;;;;24.23;13.15;;;;;;;22.11;100.00;101125.56;5064425;28;20499;-72
2023/09/11 08:13:23;;;;;;;18.95;12.40;;;;;;;22.15;100.00;101137.63;5073081;28;20154;-72
2023/09/11 08:15:48;;;;;;;22.80;12.60;;;;;;;22.23;100.00;101133.38;5073949;28;20044;-72
2023/09/11 08:18:14;;;;;;;18.52;12.88;;;;;;;22.28;100.00;101141.56;5074221;28;20029;-72
2023/09/11 08:20:49;;;;;;;20.00;13.50;;;;;;;22.33;100.00;101143.47;5073934;28;20059;-72
2023/09/11 08:23:14;;;;;;;23.33;13.25;;;;;;;22.36;100.00;101142.88;5056141;28;20161;-72
2023/09/11 08:25:40;;;;;;;21.85;14.57;;;;;;;22.39;100.00;101134.84;5037041;28;20064;-72
2023/09/11 08:28:05;;;;;;;19.92;13.82;;;;;;;22.39;100.00;101137.59;5051972;28;20499;-73
2023/09/11 08:30:31;;;;;;;19.77;14.38;;;;;;;22.42;100.00;101125.97;5073641;28;20085;-72
2023/09/11 08:32:58;;;;;;;22.85;13.57;;;;;;;22.52;100.00;101135.22;5073537;28;20051;-72
2023/09/11 08:35:23;;;;;;;20.23;12.82;;;;;;;22.56;100.00;101136.25;5073585;28;20107;-72
2023/09/11 08:37:49;;;;;;;25.52;14.48;;;;;;;22.57;100.00;101133.19;5073745;28;20567;-72
2023/09/11 08:40:14;;;;;;;20.35;14.07;;;;;;;22.65;100.00;101126.19;5053782;28;20029;-72
2023/09/11 08:42:40;;;;;;;21.58;13.95;;;;;;;22.71;100.00;101126.94;5053269;28;20040;-73
2023/09/11 08:45:06;;;;;;;22.00;13.50;;;;;;;22.79;100.00;101129.78;5053673;28;20032;-72
2023/09/11 08:47:34;;;;;;;24.52;13.63;;;;;;;22.84;100.00;101134.41;5053472;28;20372;-72
2023/09/11 08:50:05;;;;;;;18.77;13.25;;;;;;;22.87;100.00;101142.09;5053637;28;20036;-73
2023/09/11 08:52:31;;;;;;;20.02;13.95;;;;;;;22.97;100.00;101133.63;5053492;28;20029;-73
2023/09/11 08:55:02;;;;;;;21.23;13.50;;;;;;;23.05;100.00;101134.88;5035246;28;20098;-73
2023/09/11 08:57:31;;;;;;;20.63;14.48;;;;;;;23.09;100.00;101130.44;5052971;28;20467;-72
2023/09/11 09:00:04;;;;;;;28.35;14.60;;;;;;;23.22;100.00;101137.13;5059100;28;20493;-71
2023/09/11 09:02:32;;;;;;;20.08;12.70;;;;;;;23.28;100.00;101135.06;5067597;28;20032;-72
2023/09/11 09:04:58;;;;;;;25.13;13.32;;;;;;;23.35;100.00;101138.25;5069392;28;20044;-72
2023/09/11 09:07:25;;;;;;;19.88;13.48;;;;;;;23.43;100.00;101132.03;5053231;28;20028;-73
2023/09/11 09:09:51;;;;;;;19.40;12.90;;;;;;;23.47;100.00;101129.47;5053103;28;20029;-73
2023/09/11 09:12:18;;;;;;;20.75;11.63;;;;;;;23.51;100.00;101131.31;5035262;28;20358;-72
2023/09/11 09:14:43;;;;;;;24.10;13.18;;;;;;;23.62;100.00;101129.16;5070509;28;20036;-75
2023/09/11 09:17:08;;;;;;;19.60;12.88;;;;;;;23.69;100.00;101134.31;5073007;28;20039;-70
2023/09/11 09:19:34;;;;;;;21.25;13.18;;;;;;;23.72;100.00;101136.47;5062358;28;20043;-71
2023/09/11 09:22:02;;;;;;;18.17;12.68;;;;;;;23.92;100.00;101131.66;5035053;28;20029;-71
2023/09/11 09:24:27;;;;;;;18.55;12.15;;;;;;;23.97;100.00;101134.31;5034759;28;20025;-72
2023/09/11 09:27:02;;;;;;;20.42;11.70;;;;;;;23.93;100.00;101131.34;5052176;28;20033;-74
2023/09/11 09:29:36;;;;;;;17.77;11.07;;;;;;;23.99;100.00;101143.09;5052445;28;20032;-73
2023/09/11 09:32:03;;;;;;;19.65;12.55;;;;;;;24.08;100.00;101140.44;5052841;28;20059;-74
2023/09/11 09:34:29;;;;;;;19.80;11.38;;;;;;;24.22;100.00;101130.97;5052058;28;20056;-74
2023/09/11 09:36:55;;;;;;;17.45;11.52;;;;;;;24.22;100.00;101136.50;5052785;28;20496;-74
2023/09/11 09:39:21;;;;;;;20.90;11.35;;;;;;;24.24;100.00;101142.53;5055555;28;20127;-75
2023/09/11 09:41:53;;;;;;;19.77;11.63;;;;;;;24.32;100.00;101135.47;5034332;28;20111;-74
2023/09/11 09:44:29;;;;;;;15.48;10.40;;;;;;;24.37;100.00;101131.78;5052575;28;20214;-74
2023/09/11 09:46:54;;;;;;;17.35;10.35;;;;;;;24.38;100.00;101130.63;5052697;28;20033;-76
2023/09/11 09:49:23;;;;;;;15.38;10.02;;;;;;;24.49;100.00;101145.03;5034188;28;20110;-72
2023/09/11 09:51:48;;;;;;;15.35;10.70;;;;;;;24.55;100.00;101133.56;5052724;28;20052;-74
2023/09/11 09:54:14;;;;;;;16.65;8.40;;;;;;;24.67;100.00;101134.97;5038340;28;20468;-75
2023/09/11 09:56:42;;;;;;;16.98;9.65;;;;;;;24.59;98.57;101136.53;5041610;28;20039;-75
2023/09/11 09:59:08;;;;;;;13.45;8.52;;;;;;;24.59;100.00;101131.00;5057712;28;20037;-74
2023/09/11 10:01:44;;;;;;;13.93;8.52;;;;;;;24.63;99.89;101128.44;5058310;28;20369;-75
2023/09/11 10:04:16;;;;;;;15.60;9.20;;;;;;;24.61;100.00;101133.44;5039226;28;20041;-78
2023/09/11 10:06:41;;;;;;;15.35;7.38;;;;;;;24.72;100.00;101130.13;5060104;28;20028;-77
2023/09/11 10:09:12;;;;;;;20.30;7.70;;;;;;;24.77;100.00;101134.72;5065250;28;20039;-74
2023/09/11 10:11:39;;;;;;;14.45;8.80;;;;;;;24.80;97.39;101136.84;5040590;28;20025;-74
2023/09/11 10:14:07;;;;;;;16.85;9.10;;;;;;;24.95;100.00;101135.66;5050715;28;20108;-76
2023/09/11 10:16:33;;;;;;;16.00;8.20;;;;;;;25.04;100.00;101132.94;5038193;28;20032;-76
2023/09/11 10:19:00;;;;;;;14.25;6.93;;;;;;;25.07;91.16;101135.88;5055427;28;20036;-75
2023/09/11 10:21:26;;;;;;;12.65;6.18;;;;;;;25.17;94.00;101137.59;5054098;28;20028;-75
2023/09/11 10:23:53;;;;;;;14.02;7.57;;;;;;;25.17;93.74;101132.06;5072171;28;20082;-77
2023/09/11 10:26:27;;;;;;;11.90;6.53;;;;;;;25.24;97.16;101131.59;5060318;28;20029;-77
2023/09/11 10:28:58;;;;;;;15.77;6.35;;;;;;;25.28;89.24;101127.88;5039363;28;20111;-80
2023/09/11 10:31:25;;;;;;;;;;;;;;;25.29;97.78;101129.53;5052613;28;20029;-77
2023/09/11 10:33:54;;;;;;;13.43;7.57;;;;;;;25.47;87.66;101124.09;5058408;28;19912;-75
2023/09/11 10:36:22;;;;;;;13.27;6.43;;;;;;;25.53;96.72;101122.81;5054250;28;20055;-72
2023/09/11 10:38:50;;;;;;;16.40;6.80;;;;;;;25.53;88.65;101122.81;5053919;28;20040;-78
2023/09/11 10:41:16;;;;;;;13.55;5.97;;;;;;;25.64;87.14;101121.38;5055960;28;20044;-80
2023/09/11 10:43:45;;;;;;;12.80;6.60;;;;;;;25.59;82.82;101115.16;5054605;28;20037;-75
2023/09/11 10:46:34;;;;;;;14.20;6.47;;;;;;;25.64;85.52;101120.56;5073389;28;20031;-73
2023/09/11 10:49:12;;;;;;;13.65;6.63;;;;;;;25.71;82.68;101122.84;5055978;28;20086;-78
2023/09/11 10:51:38;;;;;;;14.63;6.88;;;;;;;25.65;81.14;101114.69;5052174;28;20376;-75
2023/09/11 10:54:07;;;;;;;11.73;6.80;;;;;;;25.64;81.46;101113.06;5053708;28;20020;-72
2023/09/11 10:56:35;;;;;;;12.73;6.60;;;;;;;25.78;83.99;101112.94;5064158;28;22312;-74
2023/09/11 10:59:02;;;;;;;15.18;7.57;;;;;;;25.78;79.78;101112.13;5047111;28;20016;-75
2023/09/11 11:01:27;;;;;;;9.77;6.63;;;;;;;25.88;82.01;101111.81;5061548;28;20503;-74
2023/09/11 11:03:52;;;;;;;10.63;6.15;;;;;;;26.00;79.89;101114.81;5072265;28;20049;-73
2023/09/11 11:06:22;;;;;;;9.85;5.40;;;;;;;25.95;74.86;101114.94;5061073;28;20106;-73
2023/09/11 11:08:48;;;;;;;9.10;5.78;;;;;;;26.04;73.95;101112.19;5037325;28;20037;-72